createdAt,value
2022-10-30T00:00:40.545Z,99.90
2022-10-30T00:03:13.407Z,99.90
2022-10-30T00:05:40.917Z,99.90
2022-10-30T00:10:34.866Z,99.90
2022-10-30T00:13:02.545Z,99.90
2022-10-30T00:15:29.295Z,99.90
2022-10-30T00:17:56.479Z,99.90
2022-10-30T00:20:23.670Z,99.90
2022-10-30T00:22:50.460Z,99.90
2022-10-30T00:25:17.424Z,99.90
2022-10-30T00:27:44.160Z,99.90
2022-10-30T00:30:11.753Z,99.90
2022-10-30T00:32:38.538Z,99.90
2022-10-30T00:35:05.600Z,99.90
2022-10-30T00:37:32.343Z,99.90
2022-10-30T00:39:59.052Z,99.90
2022-10-30T00:42:30.284Z,99.90
2022-10-30T00:44:57.047Z,99.90
2022-10-30T00:47:35.728Z,99.90
2022-10-30T00:50:19.358Z,99.90
2022-10-30T00:52:56.959Z,99.90
2022-10-30T00:55:31.851Z,99.90
2022-10-30T00:58:01.458Z,99.90
2022-10-30T01:00:29.409Z,99.90
2022-10-30T01:02:57.668Z,99.90
2022-10-30T01:05:27.684Z,99.90
2022-10-30T01:07:54.699Z,99.90
2022-10-30T01:10:22.327Z,99.90
2022-10-30T01:12:51.395Z,99.90
2022-10-30T01:15:23.347Z,99.90
2022-10-30T01:18:13.391Z,99.90
2022-10-30T01:21:00.747Z,99.90
2022-10-30T01:23:27.455Z,99.90
2022-10-30T01:26:10.015Z,99.90
2022-10-30T01:29:03.049Z,99.90
2022-10-30T01:31:38.683Z,99.90
2022-10-30T01:34:17.603Z,99.90
2022-10-30T01:37:13.772Z,99.90
2022-10-30T01:39:41.538Z,99.90
2022-10-30T01:42:31.090Z,99.90
2022-10-30T01:44:58.294Z,99.90
2022-10-30T01:47:47.531Z,99.90
2022-10-30T01:50:37.639Z,99.90
2022-10-30T01:53:28.034Z,99.90
2022-10-30T01:55:54.715Z,99.90
2022-10-30T01:58:59.993Z,99.90
2022-10-30T02:01:29.017Z,99.90
2022-10-30T02:03:55.982Z,99.90
2022-10-30T02:06:22.941Z,99.90
2022-10-30T02:08:49.664Z,99.90
2022-10-30T02:11:17.058Z,99.90
2022-10-30T02:13:44.085Z,99.90
2022-10-30T02:16:11.082Z,99.90
2022-10-30T02:18:37.911Z,99.90
2022-10-30T02:21:04.837Z,99.90
2022-10-30T02:23:32.944Z,99.90
2022-10-30T02:25:59.840Z,99.90
2022-10-30T02:28:26.700Z,99.90
2022-10-30T02:30:53.515Z,99.90
2022-10-30T02:33:20.364Z,99.90
2022-10-30T02:35:47.126Z,99.90
2022-10-30T02:38:13.854Z,99.90
2022-10-30T02:40:40.574Z,99.90
2022-10-30T02:43:07.368Z,99.90
2022-10-30T02:45:36.947Z,99.90
2022-10-30T02:48:04.019Z,99.90
2022-10-30T02:50:30.955Z,99.90
2022-10-30T02:52:59.542Z,99.90
2022-10-30T02:55:26.642Z,99.90
2022-10-30T02:57:54.565Z,99.90
2022-10-30T03:00:21.367Z,99.90
2022-10-30T03:02:48.252Z,99.90
2022-10-30T03:05:15.056Z,99.90
2022-10-30T03:07:41.838Z,99.90
2022-10-30T03:10:09.001Z,99.90
2022-10-30T03:12:35.735Z,99.90
2022-10-30T03:15:02.634Z,99.90
2022-10-30T03:17:30.094Z,99.90
2022-10-30T03:19:56.948Z,99.90
2022-10-30T03:22:23.785Z,99.90
2022-10-30T03:24:50.494Z,99.90
2022-10-30T03:27:17.503Z,99.90
2022-10-30T03:29:44.212Z,99.90
2022-10-30T03:32:11.743Z,99.90
2022-10-30T03:34:38.740Z,99.90
2022-10-30T03:37:05.545Z,99.90
2022-10-30T03:39:32.279Z,99.90
2022-10-30T03:41:59.123Z,99.90
2022-10-30T03:44:25.861Z,99.90
2022-10-30T03:46:52.620Z,99.90
2022-10-30T03:49:19.331Z,99.90
2022-10-30T03:51:46.074Z,99.90
2022-10-30T03:54:12.834Z,99.90
2022-10-30T03:56:39.663Z,99.90
2022-10-30T03:59:06.389Z,99.90
2022-10-30T04:01:33.295Z,99.90
2022-10-30T04:04:00.143Z,99.90
2022-10-30T04:06:27.010Z,99.90
2022-10-30T04:08:55.397Z,99.90
2022-10-30T04:11:22.244Z,99.90
2022-10-30T04:13:48.999Z,99.90
2022-10-30T04:16:15.807Z,99.90
2022-10-30T04:18:42.573Z,99.90
2022-10-30T04:21:09.267Z,99.90
2022-10-30T04:23:36.123Z,99.90
2022-10-30T04:26:02.933Z,99.90
2022-10-30T04:28:29.652Z,99.90
2022-10-30T04:30:56.639Z,99.90
2022-10-30T04:33:23.425Z,99.90
2022-10-30T04:35:50.146Z,99.90
2022-10-30T04:38:19.634Z,99.90
2022-10-30T04:40:46.596Z,99.90
2022-10-30T04:43:14.104Z,99.90
2022-10-30T04:45:41.633Z,99.90
2022-10-30T04:48:16.577Z,99.90
2022-10-30T04:50:44.119Z,99.90
2022-10-30T04:53:16.622Z,99.90
2022-10-30T04:55:44.545Z,99.90
2022-10-30T04:58:12.496Z,99.90
2022-10-30T05:00:39.530Z,99.90
2022-10-30T05:03:06.424Z,99.90
2022-10-30T05:05:33.211Z,99.90
2022-10-30T05:08:00.420Z,99.90
2022-10-30T05:10:27.701Z,99.90
2022-10-30T05:12:54.593Z,99.90
2022-10-30T05:15:21.809Z,99.90
2022-10-30T05:17:53.000Z,99.90
2022-10-30T05:20:19.835Z,99.90
2022-10-30T05:22:46.818Z,99.90
2022-10-30T05:25:13.632Z,99.90
2022-10-30T05:27:40.377Z,99.90
2022-10-30T05:30:07.760Z,99.90
2022-10-30T05:32:34.425Z,99.90
2022-10-30T05:35:01.151Z,99.90
2022-10-30T05:37:28.095Z,99.90
2022-10-30T05:39:54.920Z,99.90
2022-10-30T05:42:21.872Z,99.90
2022-10-30T05:45:00.964Z,99.90
2022-10-30T05:47:28.736Z,99.90
2022-10-30T05:49:55.500Z,99.90
2022-10-30T05:52:22.338Z,99.90
2022-10-30T05:54:49.104Z,99.90
2022-10-30T05:57:15.857Z,99.90
2022-10-30T05:59:42.633Z,99.90
2022-10-30T06:02:09.449Z,99.90
2022-10-30T06:04:36.285Z,99.90
2022-10-30T06:07:02.988Z,99.90
2022-10-30T06:09:29.878Z,99.90
2022-10-30T06:11:56.715Z,99.90
2022-10-30T06:14:23.495Z,99.90
2022-10-30T06:16:50.316Z,99.90
2022-10-30T06:19:18.776Z,99.90
2022-10-30T06:21:46.326Z,99.90
2022-10-30T06:24:13.697Z,99.90
2022-10-30T06:26:40.922Z,99.90
2022-10-30T06:29:07.917Z,99.90
2022-10-30T06:31:34.705Z,99.90
2022-10-30T06:34:01.426Z,99.90
2022-10-30T06:36:28.217Z,99.90
2022-10-30T06:41:26.073Z,99.90
2022-10-30T06:43:57.191Z,99.90
2022-10-30T06:46:27.054Z,99.90
2022-10-30T06:48:57.509Z,99.90
2022-10-30T06:51:24.530Z,99.90
2022-10-30T06:56:18.536Z,99.90
2022-10-30T06:58:45.300Z,99.90
2022-10-30T07:01:12.136Z,99.90
2022-10-30T07:03:38.813Z,99.90
2022-10-30T07:06:05.924Z,99.90
2022-10-30T07:08:32.729Z,99.90
2022-10-30T07:10:59.550Z,99.90
2022-10-30T07:13:26.297Z,99.90
2022-10-30T07:15:53.161Z,99.90
2022-10-30T07:18:20.034Z,99.90
2022-10-30T07:20:46.828Z,99.90
2022-10-30T07:23:13.596Z,99.90
2022-10-30T07:25:40.349Z,99.90
2022-10-30T07:28:07.152Z,99.90
2022-10-30T07:30:33.909Z,99.90
2022-10-30T07:33:02.977Z,99.90
2022-10-30T07:35:30.899Z,99.90
2022-10-30T07:38:05.668Z,99.90
2022-10-30T07:40:33.243Z,99.90
2022-10-30T07:43:01.953Z,99.90
2022-10-30T07:45:29.817Z,99.90
2022-10-30T07:47:57.086Z,99.90
2022-10-30T07:50:24.656Z,99.90
2022-10-30T07:52:51.426Z,99.90
2022-10-30T07:55:18.166Z,99.90
2022-10-30T07:57:45.028Z,99.90
2022-10-30T08:00:14.380Z,99.90
2022-10-30T08:02:42.111Z,99.90
2022-10-30T08:05:09.811Z,99.90
2022-10-30T08:07:38.016Z,99.90
2022-10-30T08:10:06.477Z,99.90
2022-10-30T08:12:34.510Z,99.90
2022-10-30T08:15:01.746Z,99.90
2022-10-30T08:19:57.114Z,99.90
2022-10-30T08:22:24.470Z,99.90
2022-10-30T08:24:51.468Z,99.90
2022-10-30T08:29:45.529Z,99.90
2022-10-30T08:32:12.314Z,99.90
2022-10-30T08:34:39.176Z,99.90
2022-10-30T08:37:07.935Z,99.90
2022-10-30T08:39:34.666Z,99.90
2022-10-30T08:42:01.476Z,99.90
2022-10-30T08:44:28.255Z,99.90
2022-10-30T08:46:55.034Z,99.90
2022-10-30T08:49:21.801Z,99.90
2022-10-30T08:51:48.649Z,99.90
2022-10-30T08:54:15.365Z,99.90
2022-10-30T08:59:09.276Z,99.90
2022-10-30T09:01:36.834Z,99.90
2022-10-30T09:04:04.263Z,99.90
2022-10-30T09:06:31.940Z,99.90
2022-10-30T09:08:58.789Z,99.90
2022-10-30T09:11:25.721Z,99.90
2022-10-30T09:13:52.539Z,99.90
2022-10-30T09:16:19.310Z,99.90
2022-10-30T09:18:46.078Z,99.90
2022-10-30T09:21:12.831Z,99.90
2022-10-30T09:23:39.576Z,99.90
2022-10-30T09:28:33.645Z,99.90
2022-10-30T09:31:01.809Z,99.90
2022-10-30T09:35:55.904Z,99.90
2022-10-30T09:38:22.701Z,99.90
2022-10-30T09:40:52.332Z,99.90
2022-10-30T09:43:46.237Z,95.70
2022-10-30T09:46:12.983Z,95.20
2022-10-30T09:51:49.454Z,87.50
2022-10-30T09:54:44.203Z,77.30
2022-10-30T09:57:30.911Z,75.70
2022-10-30T10:00:10.495Z,76.60
2022-10-30T10:03:06.366Z,71.70
2022-10-30T10:05:44.890Z,70.70
2022-10-30T10:08:19.364Z,68.10
2022-10-30T10:10:52.827Z,68.00
2022-10-30T10:13:44.843Z,66.50
2022-10-30T10:16:14.399Z,65.00
2022-10-30T10:19:06.121Z,63.70
2022-10-30T10:21:37.378Z,65.70
2022-10-30T10:24:11.902Z,61.70
2022-10-30T10:26:44.691Z,61.40
2022-10-30T10:29:22.255Z,60.70
2022-10-30T10:32:17.725Z,53.70
2022-10-30T10:34:56.425Z,56.10
2022-10-30T10:37:45.739Z,53.80
2022-10-30T10:40:38.882Z,56.10
2022-10-30T10:43:30.272Z,54.70
2022-10-30T10:46:29.615Z,54.60
2022-10-30T10:48:56.304Z,53.70
2022-10-30T10:51:29.964Z,55.20
2022-10-30T10:54:20.069Z,54.20
2022-10-30T10:56:49.540Z,53.20
2022-10-30T10:59:21.260Z,52.40
2022-10-30T11:02:10.947Z,49.60
2022-10-30T11:04:45.542Z,50.90
2022-10-30T11:07:26.341Z,54.60
2022-10-30T11:09:54.839Z,49.10
2022-10-30T11:12:33.880Z,45.70
2022-10-30T11:15:10.147Z,42.30
2022-10-30T11:17:45.542Z,42.90
2022-10-30T11:20:18.585Z,42.90
2022-10-30T11:22:51.341Z,43.90
2022-10-30T11:25:27.031Z,41.70
2022-10-30T11:28:00.484Z,43.10
2022-10-30T11:30:28.915Z,42.90
2022-10-30T11:32:57.320Z,42.90
2022-10-30T11:35:25.357Z,42.40
2022-10-30T11:38:13.291Z,41.90
2022-10-30T11:40:46.546Z,41.80
2022-10-30T11:43:18.904Z,43.40
2022-10-30T11:45:45.826Z,43.30
2022-10-30T11:48:28.049Z,42.00
2022-10-30T11:51:02.460Z,42.10
2022-10-30T11:53:38.626Z,43.60
2022-10-30T11:56:22.251Z,42.80
2022-10-30T11:58:55.602Z,41.60
2022-10-30T12:01:39.206Z,44.00
2022-10-30T12:04:24.210Z,42.40
2022-10-30T12:07:18.536Z,43.80
2022-10-30T12:09:47.067Z,41.70
2022-10-30T12:12:19.810Z,42.10
2022-10-30T12:14:46.695Z,41.30
2022-10-30T12:17:16.829Z,42.10
2022-10-30T12:19:53.531Z,41.10
2022-10-30T12:22:33.985Z,42.50
2022-10-30T12:25:04.326Z,41.80
2022-10-30T12:27:36.750Z,41.40
2022-10-30T12:30:10.871Z,41.60
2022-10-30T12:33:04.356Z,42.20
2022-10-30T12:35:40.199Z,42.20
2022-10-30T12:38:31.942Z,40.90
2022-10-30T12:41:17.597Z,41.50
2022-10-30T12:43:52.127Z,41.70
2022-10-30T12:46:30.334Z,41.90
2022-10-30T12:49:13.352Z,42.40
2022-10-30T12:52:01.388Z,42.60
2022-10-30T12:54:39.574Z,45.80
2022-10-30T12:57:17.021Z,43.40
2022-10-30T12:59:56.718Z,42.70
2022-10-30T13:02:38.316Z,43.20
2022-10-30T13:05:32.505Z,43.30
2022-10-30T13:08:11.166Z,44.40
2022-10-30T13:10:46.066Z,43.60
2022-10-30T13:13:22.096Z,44.20
2022-10-30T13:15:52.529Z,45.90
2022-10-30T13:18:22.196Z,45.20
2022-10-30T13:20:56.179Z,46.30
2022-10-30T13:23:34.173Z,47.80
2022-10-30T13:26:06.861Z,46.70
2022-10-30T13:28:44.108Z,46.10
2022-10-30T13:31:21.728Z,46.90
2022-10-30T13:34:16.075Z,46.50
2022-10-30T13:36:57.869Z,47.70
2022-10-30T13:39:34.137Z,48.20
2022-10-30T13:42:27.806Z,48.30
2022-10-30T13:45:06.369Z,48.40
2022-10-30T13:48:05.002Z,48.80
2022-10-30T13:51:01.925Z,49.10
2022-10-30T13:53:33.459Z,50.00
2022-10-30T13:56:00.539Z,50.50
2022-10-30T13:58:46.288Z,51.20
2022-10-30T14:01:37.215Z,50.90
2022-10-30T14:04:12.224Z,51.30
2022-10-30T14:06:53.504Z,51.10
2022-10-30T14:09:45.508Z,52.40
2022-10-30T14:12:54.105Z,54.10
2022-10-30T14:15:43.001Z,55.80
2022-10-30T14:18:12.868Z,55.60
2022-10-30T14:20:41.322Z,58.00
2022-10-30T14:23:19.995Z,58.60
2022-10-30T14:26:05.471Z,59.80
2022-10-30T14:28:35.725Z,63.00
2022-10-30T14:31:08.808Z,65.20
2022-10-30T14:33:55.695Z,67.70
2022-10-30T14:36:26.983Z,70.80
2022-10-30T14:39:00.854Z,72.70
2022-10-30T14:41:32.099Z,73.90
2022-10-30T14:44:13.777Z,77.70
2022-10-30T14:47:09.834Z,78.90
2022-10-30T14:49:42.179Z,79.70
2022-10-30T14:52:27.586Z,79.60
2022-10-30T14:55:24.602Z,82.60
2022-10-30T14:58:21.034Z,86.00
2022-10-30T15:00:48.345Z,90.00
2022-10-30T15:03:52.528Z,91.50
2022-10-30T15:06:42.555Z,93.00
2022-10-30T15:09:16.948Z,95.90
2022-10-30T15:11:52.688Z,97.60
2022-10-30T15:14:52.547Z,99.90
2022-10-30T15:17:40.045Z,99.90
2022-10-30T15:20:14.868Z,99.90
2022-10-30T15:22:42.223Z,99.90
2022-10-30T15:25:44.152Z,99.90
2022-10-30T15:28:18.711Z,99.90
2022-10-30T15:31:04.154Z,99.90
2022-10-30T15:33:32.504Z,99.90
2022-10-30T15:36:00.007Z,99.90
2022-10-30T15:38:26.980Z,99.90
2022-10-30T15:40:59.665Z,99.90
2022-10-30T15:43:37.410Z,99.90
2022-10-30T15:46:10.128Z,99.90
2022-10-30T15:48:41.020Z,99.90
2022-10-30T15:51:16.806Z,99.90
2022-10-30T15:53:43.561Z,99.90
2022-10-30T15:56:29.155Z,99.90
2022-10-30T15:59:06.756Z,99.90
2022-10-30T16:01:54.887Z,99.90
2022-10-30T16:04:33.171Z,99.90
2022-10-30T16:07:04.397Z,99.90
2022-10-30T16:09:31.204Z,99.90
2022-10-30T16:12:00.494Z,99.90
2022-10-30T16:14:34.458Z,99.90
2022-10-30T16:17:01.844Z,99.90
2022-10-30T16:19:31.405Z,99.90
2022-10-30T16:21:59.436Z,99.90
2022-10-30T16:24:36.023Z,99.90
2022-10-30T16:27:14.114Z,99.90
2022-10-30T16:29:41.916Z,99.90
2022-10-30T16:34:45.632Z,99.90
2022-10-30T16:37:20.788Z,99.90
2022-10-30T16:39:50.717Z,99.90
2022-10-30T16:42:26.897Z,99.90
2022-10-30T16:45:32.188Z,99.90
2022-10-30T16:48:09.322Z,99.90
2022-10-30T16:50:38.441Z,99.90
2022-10-30T16:53:18.303Z,99.90
2022-10-30T16:55:45.368Z,99.90
2022-10-30T16:58:14.755Z,99.90
2022-10-30T17:00:48.224Z,99.90
2022-10-30T17:03:15.078Z,99.90
2022-10-30T17:05:47.145Z,99.90
2022-10-30T17:08:16.752Z,99.90
2022-10-30T17:10:43.499Z,99.90
2022-10-30T17:13:33.483Z,99.90
2022-10-30T17:16:12.523Z,99.90
2022-10-30T17:18:39.289Z,99.90
2022-10-30T17:21:11.849Z,99.90
2022-10-30T17:23:48.600Z,99.90
2022-10-30T17:26:15.857Z,99.90
2022-10-30T17:28:43.282Z,99.90
2022-10-30T17:31:42.764Z,99.90
2022-10-30T17:34:14.312Z,99.90
2022-10-30T17:36:41.647Z,99.90
2022-10-30T17:39:09.209Z,99.90
2022-10-30T17:41:36.778Z,99.90
2022-10-30T17:44:05.152Z,99.90
2022-10-30T17:46:32.156Z,99.90
2022-10-30T17:48:59.816Z,99.90
2022-10-30T17:51:26.844Z,99.90
2022-10-30T17:53:53.703Z,99.90
2022-10-30T17:56:27.722Z,99.90
2022-10-30T17:58:55.259Z,99.90
2022-10-30T18:01:24.869Z,99.90
2022-10-30T18:03:54.969Z,99.90
2022-10-30T18:06:24.914Z,99.90
2022-10-30T18:08:53.272Z,99.90
2022-10-30T18:11:22.190Z,99.90
2022-10-30T18:13:50.495Z,99.90
2022-10-30T18:16:19.140Z,99.90
2022-10-30T18:18:46.034Z,99.90
2022-10-30T18:21:23.181Z,99.90
2022-10-30T18:23:52.712Z,99.90
2022-10-30T18:26:23.233Z,99.90
2022-10-30T18:28:50.108Z,99.90
2022-10-30T18:31:19.564Z,99.90
2022-10-30T18:33:47.346Z,99.90
2022-10-30T18:36:24.953Z,99.90
2022-10-30T18:38:52.858Z,99.90
2022-10-30T18:41:33.450Z,99.90
2022-10-30T18:44:00.594Z,99.90
2022-10-30T18:46:29.466Z,99.90
2022-10-30T18:48:56.338Z,99.90
2022-10-30T18:51:25.705Z,99.90
2022-10-30T18:53:52.782Z,99.90
2022-10-30T18:56:24.791Z,99.90
2022-10-30T18:58:56.428Z,99.90
2022-10-30T19:01:28.645Z,99.90
2022-10-30T19:03:55.539Z,99.90
2022-10-30T19:06:24.164Z,99.90
2022-10-30T19:08:51.041Z,99.90
2022-10-30T19:11:24.660Z,99.90
2022-10-30T19:13:53.406Z,99.90
2022-10-30T19:16:20.820Z,99.90
2022-10-30T19:18:48.590Z,99.90
2022-10-30T19:21:18.430Z,99.90
2022-10-30T19:23:45.750Z,99.90
2022-10-30T19:26:17.130Z,99.90
2022-10-30T19:28:44.897Z,99.90
2022-10-30T19:31:15.037Z,99.90
2022-10-30T19:33:42.248Z,99.90
2022-10-30T19:36:27.501Z,99.90
2022-10-30T19:38:54.727Z,99.90
2022-10-30T19:41:21.698Z,99.90
2022-10-30T19:43:48.519Z,99.90
2022-10-30T19:46:15.505Z,99.90
2022-10-30T19:48:59.533Z,99.90
2022-10-30T19:51:28.165Z,99.90
2022-10-30T19:53:54.990Z,99.90
2022-10-30T19:56:22.438Z,99.90
2022-10-30T19:58:49.736Z,99.90
2022-10-30T20:03:44.226Z,99.90
2022-10-30T20:06:12.490Z,99.90
2022-10-30T20:08:39.596Z,99.90
2022-10-30T20:11:06.506Z,99.90
2022-10-30T20:13:33.765Z,99.90
2022-10-30T20:16:04.673Z,99.90
2022-10-30T20:18:34.830Z,99.90
2022-10-30T20:21:04.179Z,99.90
2022-10-30T20:23:31.198Z,99.90
2022-10-30T20:26:00.929Z,99.90
2022-10-30T20:28:36.540Z,99.90
2022-10-30T20:31:04.236Z,99.90
2022-10-30T20:33:31.105Z,99.90
2022-10-30T20:35:58.090Z,99.90
2022-10-30T20:38:29.070Z,99.90
2022-10-30T20:40:56.649Z,99.90
2022-10-30T20:43:37.773Z,99.90
2022-10-30T20:46:07.080Z,99.90
2022-10-30T20:48:33.845Z,99.90
2022-10-30T20:51:01.814Z,99.90
2022-10-30T20:53:29.971Z,99.90
2022-10-30T20:55:56.846Z,99.90
2022-10-30T20:58:24.247Z,99.90
2022-10-30T21:00:53.381Z,99.90
2022-10-30T21:03:20.175Z,99.90
2022-10-30T21:05:53.765Z,99.90
2022-10-30T21:08:20.504Z,99.90
2022-10-30T21:10:47.217Z,99.90
2022-10-30T21:13:13.980Z,99.90
2022-10-30T21:15:42.600Z,99.90
2022-10-30T21:18:11.191Z,99.90
2022-10-30T21:20:38.323Z,99.90
2022-10-30T21:23:06.246Z,99.90
2022-10-30T21:25:33.236Z,99.90
2022-10-30T21:28:00.924Z,99.90
2022-10-30T21:30:28.593Z,99.90
2022-10-30T21:32:55.393Z,99.90
2022-10-30T21:35:22.198Z,99.90
2022-10-30T21:37:49.149Z,99.90
2022-10-30T21:40:15.988Z,99.90
2022-10-30T21:42:42.737Z,99.90
2022-10-30T21:45:10.310Z,99.90
2022-10-30T21:47:37.075Z,99.90
2022-10-30T21:50:07.565Z,99.90
2022-10-30T21:52:36.225Z,99.90
2022-10-30T21:55:03.158Z,99.90
2022-10-30T21:57:30.173Z,99.90
2022-10-30T21:59:58.930Z,99.90
2022-10-30T22:02:28.536Z,99.90
2022-10-30T22:04:55.244Z,99.90
2022-10-30T22:07:22.037Z,99.90
2022-10-30T22:09:48.822Z,99.90
2022-10-30T22:12:15.640Z,99.90
2022-10-30T22:14:42.431Z,99.90
2022-10-30T22:19:36.324Z,99.90
2022-10-30T22:22:03.160Z,99.90
2022-10-30T22:24:29.899Z,99.90
2022-10-30T22:26:56.650Z,99.90
2022-10-30T22:29:23.400Z,99.90
2022-10-30T22:31:50.280Z,99.90
2022-10-30T22:34:17.043Z,99.90
2022-10-30T22:36:43.865Z,99.90
2022-10-30T22:39:13.300Z,99.90
2022-10-30T22:41:40.936Z,99.90
2022-10-30T22:44:11.684Z,99.90
2022-10-30T22:46:39.139Z,99.90
2022-10-30T22:49:06.851Z,99.90
2022-10-30T22:51:35.401Z,99.90
2022-10-30T22:54:04.199Z,99.90
2022-10-30T22:56:33.956Z,99.90
2022-10-30T22:59:14.546Z,99.90
2022-10-30T23:01:41.986Z,99.90
2022-10-30T23:04:11.101Z,99.90
2022-10-30T23:06:38.258Z,99.90
2022-10-30T23:09:08.587Z,99.90
2022-10-30T23:11:35.820Z,99.90
2022-10-30T23:14:02.596Z,99.90
2022-10-30T23:16:29.615Z,99.90
2022-10-30T23:18:58.537Z,99.90
2022-10-30T23:21:28.008Z,99.90
2022-10-30T23:23:55.568Z,99.90
2022-10-30T23:26:24.801Z,99.90
2022-10-30T23:28:53.929Z,99.90
2022-10-30T23:31:29.466Z,99.90
2022-10-30T23:33:58.739Z,99.90
2022-10-30T23:36:25.792Z,99.90
2022-10-30T23:39:03.906Z,99.90
2022-10-30T23:41:32.132Z,99.90
2022-10-30T23:44:01.976Z,99.90
2022-10-30T23:46:29.196Z,99.90
2022-10-30T23:48:55.950Z,99.90
2022-10-30T23:51:23.361Z,99.90
2022-10-30T23:53:50.654Z,99.90
2022-10-30T23:56:18.364Z,99.90
2022-10-30T23:58:47.047Z,99.90
